sensor_id;sensor_type;location;lat;lon;timestamp;temperature;humidity
68215;DHT22;55036;52.138;5.236;2023-05-29T00:00:46;13.10;72.50
68215;DHT22;55036;52.138;5.236;2023-05-29T00:03:13;13.10;72.50
68215;DHT22;55036;52.138;5.236;2023-05-29T00:05:40;13.10;72.50
68215;DHT22;55036;52.138;5.236;2023-05-29T00:08:07;13.10;72.40
68215;DHT22;55036;52.138;5.236;2023-05-29T00:10:34;13.10;72.10
68215;DHT22;55036;52.138;5.236;2023-05-29T00:13:02;13.10;72.20
68215;DHT22;55036;52.138;5.236;2023-05-29T00:47:54;12.60;72.40
68215;DHT22;55036;52.138;5.236;2023-05-29T00:50:21;12.50;73.10
68215;DHT22;55036;52.138;5.236;2023-05-29T00:52:50;12.50;72.90
68215;DHT22;55036;52.138;5.236;2023-05-29T00:55:17;12.60;72.70
68215;DHT22;55036;52.138;5.236;2023-05-29T00:57:44;12.50;72.90
68215;DHT22;55036;52.138;5.236;2023-05-29T01:00:13;12.50;72.70
68215;DHT22;55036;52.138;5.236;2023-05-29T01:02:42;12.50;72.50
68215;DHT22;55036;52.138;5.236;2023-05-29T01:05:12;12.50;72.20
68215;DHT22;55036;52.138;5.236;2023-05-29T01:07:39;12.50;72.30
68215;DHT22;55036;52.138;5.236;2023-05-29T01:10:06;12.50;72.30
68215;DHT22;55036;52.138;5.236;2023-05-29T01:12:49;12.50;72.50
68215;DHT22;55036;52.138;5.236;2023-05-29T01:15:33;12.40;72.50
68215;DHT22;55036;52.138;5.236;2023-05-29T01:18:12;12.40;72.60
68215;DHT22;55036;52.138;5.236;2023-05-29T01:23:23;12.40;72.30
68215;DHT22;55036;52.138;5.236;2023-05-29T01:28:47;12.40;72.50
68215;DHT22;55036;52.138;5.236;2023-05-29T01:31:17;12.40;72.50
68215;DHT22;55036;52.138;5.236;2023-05-29T01:33:57;12.40;72.30
68215;DHT22;55036;52.138;5.236;2023-05-29T01:36:25;12.40;72.20
68215;DHT22;55036;52.138;5.236;2023-05-29T01:38:54;12.40;72.20
68215;DHT22;55036;52.138;5.236;2023-05-29T01:41:22;12.40;71.70
68215;DHT22;55036;52.138;5.236;2023-05-29T01:43:50;12.40;71.70
68215;DHT22;55036;52.138;5.236;2023-05-29T01:46:18;12.40;72.60
68215;DHT22;55036;52.138;5.236;2023-05-29T01:48:45;12.20;73.20
68215;DHT22;55036;52.138;5.236;2023-05-29T01:51:13;12.20;72.20
68215;DHT22;55036;52.138;5.236;2023-05-29T01:53:41;12.20;72.30
68215;DHT22;55036;52.138;5.236;2023-05-29T01:56:08;12.20;72.30
68215;DHT22;55036;52.138;5.236;2023-05-29T01:58:35;12.10;72.60
68215;DHT22;55036;52.138;5.236;2023-05-29T02:01:03;12.10;72.80
68215;DHT22;55036;52.138;5.236;2023-05-29T02:03:30;12.20;72.50
68215;DHT22;55036;52.138;5.236;2023-05-29T02:05:57;12.10;72.70
68215;DHT22;55036;52.138;5.236;2023-05-29T02:08:25;12.10;72.60
68215;DHT22;55036;52.138;5.236;2023-05-29T02:10:52;12.10;73.10
68215;DHT22;55036;52.138;5.236;2023-05-29T02:13:19;12.10;72.80
68215;DHT22;55036;52.138;5.236;2023-05-29T02:15:47;12.10;73.00
68215;DHT22;55036;52.138;5.236;2023-05-29T02:18:15;12.00;72.90
68215;DHT22;55036;52.138;5.236;2023-05-29T02:20:41;11.90;73.10
68215;DHT22;55036;52.138;5.236;2023-05-29T02:23:09;11.90;73.30
68215;DHT22;55036;52.138;5.236;2023-05-29T02:25:36;11.90;73.30
68215;DHT22;55036;52.138;5.236;2023-05-29T02:28:03;12.00;73.20
68215;DHT22;55036;52.138;5.236;2023-05-29T02:30:30;12.00;73.20
68215;DHT22;55036;52.138;5.236;2023-05-29T02:32:57;12.00;73.10
68215;DHT22;55036;52.138;5.236;2023-05-29T02:35:24;12.00;73.10
68215;DHT22;55036;52.138;5.236;2023-05-29T02:37:51;12.00;73.00
68215;DHT22;55036;52.138;5.236;2023-05-29T02:40:18;11.90;73.10
68215;DHT22;55036;52.138;5.236;2023-05-29T02:42:46;11.90;73.10
68215;DHT22;55036;52.138;5.236;2023-05-29T02:45:13;11.90;72.90
68215;DHT22;55036;52.138;5.236;2023-05-29T02:47:40;11.90;73.20
68215;DHT22;55036;52.138;5.236;2023-05-29T02:50:07;11.90;73.30
68215;DHT22;55036;52.138;5.236;2023-05-29T02:52:35;11.90;73.10
68215;DHT22;55036;52.138;5.236;2023-05-29T02:55:06;11.80;73.20
68215;DHT22;55036;52.138;5.236;2023-05-29T02:57:33;11.90;73.70
68215;DHT22;55036;52.138;5.236;2023-05-29T03:00:00;11.70;74.20
68215;DHT22;55036;52.138;5.236;2023-05-29T03:02:27;11.70;73.80
68215;DHT22;55036;52.138;5.236;2023-05-29T03:04:54;11.70;73.80
68215;DHT22;55036;52.138;5.236;2023-05-29T03:07:21;11.70;73.80
68215;DHT22;55036;52.138;5.236;2023-05-29T03:09:48;11.70;74.30
68215;DHT22;55036;52.138;5.236;2023-05-29T03:12:14;11.60;74.10
68215;DHT22;55036;52.138;5.236;2023-05-29T03:14:41;11.60;73.80
68215;DHT22;55036;52.138;5.236;2023-05-29T03:17:08;11.60;74.10
68215;DHT22;55036;52.138;5.236;2023-05-29T03:19:35;11.60;74.00
68215;DHT22;55036;52.138;5.236;2023-05-29T03:22:01;11.60;74.00
68215;DHT22;55036;52.138;5.236;2023-05-29T03:24:28;11.60;74.00
68215;DHT22;55036;52.138;5.236;2023-05-29T03:26:55;11.70;73.80
68215;DHT22;55036;52.138;5.236;2023-05-29T03:29:22;11.60;73.90
68215;DHT22;55036;52.138;5.236;2023-05-29T03:31:49;11.60;73.60
68215;DHT22;55036;52.138;5.236;2023-05-29T03:34:16;11.70;73.70
68215;DHT22;55036;52.138;5.236;2023-05-29T03:36:43;11.60;73.70
68215;DHT22;55036;52.138;5.236;2023-05-29T03:39:10;11.60;73.70
68215;DHT22;55036;52.138;5.236;2023-05-29T03:41:36;11.70;73.50
68215;DHT22;55036;52.138;5.236;2023-05-29T03:44:03;11.60;73.60
68215;DHT22;55036;52.138;5.236;2023-05-29T03:46:31;11.50;73.80
68215;DHT22;55036;52.138;5.236;2023-05-29T03:48:58;11.50;73.70
68215;DHT22;55036;52.138;5.236;2023-05-29T03:51:25;11.50;73.80
68215;DHT22;55036;52.138;5.236;2023-05-29T03:53:52;11.50;73.80
68215;DHT22;55036;52.138;5.236;2023-05-29T03:56:18;11.50;73.70
68215;DHT22;55036;52.138;5.236;2023-05-29T03:58:45;11.50;73.90
68215;DHT22;55036;52.138;5.236;2023-05-29T04:01:12;11.50;73.70
68215;DHT22;55036;52.138;5.236;2023-05-29T04:03:39;11.60;73.60
68215;DHT22;55036;52.138;5.236;2023-05-29T04:06:06;11.70;73.50
68215;DHT22;55036;52.138;5.236;2023-05-29T04:08:33;11.60;73.20
68215;DHT22;55036;52.138;5.236;2023-05-29T04:11:00;11.60;73.60
68215;DHT22;55036;52.138;5.236;2023-05-29T04:13:27;11.70;73.50
68215;DHT22;55036;52.138;5.236;2023-05-29T04:15:54;11.70;73.50
68215;DHT22;55036;52.138;5.236;2023-05-29T04:18:21;11.80;73.40
68215;DHT22;55036;52.138;5.236;2023-05-29T04:20:48;11.90;73.40
68215;DHT22;55036;52.138;5.236;2023-05-29T04:23:15;12.00;73.40
68215;DHT22;55036;52.138;5.236;2023-05-29T04:25:42;12.00;73.00
68215;DHT22;55036;52.138;5.236;2023-05-29T04:28:10;12.00;72.90
68215;DHT22;55036;52.138;5.236;2023-05-29T04:30:38;12.10;72.80
68215;DHT22;55036;52.138;5.236;2023-05-29T04:33:05;12.20;72.50
68215;DHT22;55036;52.138;5.236;2023-05-29T04:35:32;12.30;72.30
68215;DHT22;55036;52.138;5.236;2023-05-29T04:37:59;12.30;72.20
68215;DHT22;55036;52.138;5.236;2023-05-29T04:40:26;12.30;72.20
68215;DHT22;55036;52.138;5.236;2023-05-29T04:42:52;12.30;72.00
68215;DHT22;55036;52.138;5.236;2023-05-29T04:45:20;12.40;71.80
68215;DHT22;55036;52.138;5.236;2023-05-29T04:47:49;12.40;71.50
68215;DHT22;55036;52.138;5.236;2023-05-29T04:50:19;12.50;71.60
68215;DHT22;55036;52.138;5.236;2023-05-29T04:52:46;12.60;71.60
68215;DHT22;55036;52.138;5.236;2023-05-29T04:55:13;12.80;71.50
68215;DHT22;55036;52.138;5.236;2023-05-29T04:57:40;12.80;71.00
68215;DHT22;55036;52.138;5.236;2023-05-29T05:00:07;12.90;70.80
68215;DHT22;55036;52.138;5.236;2023-05-29T05:02:37;13.00;70.70
68215;DHT22;55036;52.138;5.236;2023-05-29T05:05:04;13.00;69.90
68215;DHT22;55036;52.138;5.236;2023-05-29T05:07:31;13.10;68.70
68215;DHT22;55036;52.138;5.236;2023-05-29T05:09:58;13.10;69.20
68215;DHT22;55036;52.138;5.236;2023-05-29T05:12:24;13.10;69.10
68215;DHT22;55036;52.138;5.236;2023-05-29T05:14:51;13.20;69.20
68215;DHT22;55036;52.138;5.236;2023-05-29T05:17:18;13.30;67.70
68215;DHT22;55036;52.138;5.236;2023-05-29T05:19:45;13.40;68.70
68215;DHT22;55036;52.138;5.236;2023-05-29T05:22:11;13.70;69.10
68215;DHT22;55036;52.138;5.236;2023-05-29T05:24:38;13.90;68.00
68215;DHT22;55036;52.138;5.236;2023-05-29T05:27:05;13.90;66.70
68215;DHT22;55036;52.138;5.236;2023-05-29T05:29:32;13.90;66.60
68215;DHT22;55036;52.138;5.236;2023-05-29T05:31:58;13.90;66.80
68215;DHT22;55036;52.138;5.236;2023-05-29T05:34:25;14.00;66.50
68215;DHT22;55036;52.138;5.236;2023-05-29T05:36:52;14.00;66.00
68215;DHT22;55036;52.138;5.236;2023-05-29T05:39:19;14.10;64.60
68215;DHT22;55036;52.138;5.236;2023-05-29T05:41:45;13.90;65.70
68215;DHT22;55036;52.138;5.236;2023-05-29T05:44:12;14.10;65.00
68215;DHT22;55036;52.138;5.236;2023-05-29T05:46:39;13.90;65.50
68215;DHT22;55036;52.138;5.236;2023-05-29T05:49:06;14.10;66.10
68215;DHT22;55036;52.138;5.236;2023-05-29T05:51:32;14.20;64.30
68215;DHT22;55036;52.138;5.236;2023-05-29T05:53:59;14.20;64.30
68215;DHT22;55036;52.138;5.236;2023-05-29T05:56:26;14.10;64.80
68215;DHT22;55036;52.138;5.236;2023-05-29T05:58:53;14.30;64.70
68215;DHT22;55036;52.138;5.236;2023-05-29T06:01:19;14.40;65.10
68215;DHT22;55036;52.138;5.236;2023-05-29T06:03:46;14.40;63.90
68215;DHT22;55036;52.138;5.236;2023-05-29T06:06:13;14.50;63.80
68215;DHT22;55036;52.138;5.236;2023-05-29T06:08:40;14.20;63.70
68215;DHT22;55036;52.138;5.236;2023-05-29T06:11:08;14.40;62.40
68215;DHT22;55036;52.138;5.236;2023-05-29T06:13:34;14.50;61.60
68215;DHT22;55036;52.138;5.236;2023-05-29T06:16:01;14.30;62.10
68215;DHT22;55036;52.138;5.236;2023-05-29T06:18:28;14.20;62.50
68215;DHT22;55036;52.138;5.236;2023-05-29T06:20:55;14.40;63.70
68215;DHT22;55036;52.138;5.236;2023-05-29T06:23:23;14.50;61.40
68215;DHT22;55036;52.138;5.236;2023-05-29T06:25:50;14.70;61.30
68215;DHT22;55036;52.138;5.236;2023-05-29T06:28:17;14.80;60.10
68215;DHT22;55036;52.138;5.236;2023-05-29T06:30:44;14.70;59.70
68215;DHT22;55036;52.138;5.236;2023-05-29T06:33:12;14.70;60.40
68215;DHT22;55036;52.138;5.236;2023-05-29T06:35:39;14.60;60.90
68215;DHT22;55036;52.138;5.236;2023-05-29T06:38:06;14.80;61.80
68215;DHT22;55036;52.138;5.236;2023-05-29T06:40:33;15.00;58.30
68215;DHT22;55036;52.138;5.236;2023-05-29T06:43:00;15.00;58.20
68215;DHT22;55036;52.138;5.236;2023-05-29T06:45:27;14.90;57.80
68215;DHT22;55036;52.138;5.236;2023-05-29T06:47:53;14.70;58.90
68215;DHT22;55036;52.138;5.236;2023-05-29T06:50:22;14.70;59.30
68215;DHT22;55036;52.138;5.236;2023-05-29T06:52:49;14.90;59.30
68215;DHT22;55036;52.138;5.236;2023-05-29T06:55:15;15.10;57.50
68215;DHT22;55036;52.138;5.236;2023-05-29T06:57:43;15.00;58.90
68215;DHT22;55036;52.138;5.236;2023-05-29T07:00:10;14.90;57.80
68215;DHT22;55036;52.138;5.236;2023-05-29T07:02:37;14.80;57.50
68215;DHT22;55036;52.138;5.236;2023-05-29T07:05:04;14.90;57.80
68215;DHT22;55036;52.138;5.236;2023-05-29T07:07:31;15.00;59.50
68215;DHT22;55036;52.138;5.236;2023-05-29T07:09:58;15.30;58.70
68215;DHT22;55036;52.138;5.236;2023-05-29T07:12:25;15.40;59.40
68215;DHT22;55036;52.138;5.236;2023-05-29T07:14:51;15.50;58.10
68215;DHT22;55036;52.138;5.236;2023-05-29T07:17:18;15.50;55.90
68215;DHT22;55036;52.138;5.236;2023-05-29T07:19:45;15.30;56.50
68215;DHT22;55036;52.138;5.236;2023-05-29T07:22:13;15.10;56.90
68215;DHT22;55036;52.138;5.236;2023-05-29T07:24:39;14.80;57.10
68215;DHT22;55036;52.138;5.236;2023-05-29T07:27:07;15.00;57.80
68215;DHT22;55036;52.138;5.236;2023-05-29T07:29:33;15.20;56.90
68215;DHT22;55036;52.138;5.236;2023-05-29T07:32:00;15.30;56.00
68215;DHT22;55036;52.138;5.236;2023-05-29T07:34:27;15.20;55.80
68215;DHT22;55036;52.138;5.236;2023-05-29T07:37:05;15.20;56.20
68215;DHT22;55036;52.138;5.236;2023-05-29T07:39:34;15.50;58.00
68215;DHT22;55036;52.138;5.236;2023-05-29T07:42:01;15.90;57.50
68215;DHT22;55036;52.138;5.236;2023-05-29T07:44:28;16.40;56.80
68215;DHT22;55036;52.138;5.236;2023-05-29T07:46:56;16.60;53.20
68215;DHT22;55036;52.138;5.236;2023-05-29T07:49:23;16.70;53.40
68215;DHT22;55036;52.138;5.236;2023-05-29T07:51:50;16.60;53.80
68215;DHT22;55036;52.138;5.236;2023-05-29T07:54:16;16.70;54.00
68215;DHT22;55036;52.138;5.236;2023-05-29T07:56:44;17.00;54.30
68215;DHT22;55036;52.138;5.236;2023-05-29T07:59:12;17.00;51.50
68215;DHT22;55036;52.138;5.236;2023-05-29T08:01:39;17.00;51.80
68215;DHT22;55036;52.138;5.236;2023-05-29T08:04:06;17.10;52.70
68215;DHT22;55036;52.138;5.236;2023-05-29T08:06:33;17.00;51.00
68215;DHT22;55036;52.138;5.236;2023-05-29T08:09:00;16.70;50.90
68215;DHT22;55036;52.138;5.236;2023-05-29T08:11:27;16.70;50.20
68215;DHT22;55036;52.138;5.236;2023-05-29T08:13:54;16.50;52.70
68215;DHT22;55036;52.138;5.236;2023-05-29T08:16:21;16.80;51.70
68215;DHT22;55036;52.138;5.236;2023-05-29T08:18:49;17.00;51.70
68215;DHT22;55036;52.138;5.236;2023-05-29T08:21:15;17.00;50.40
68215;DHT22;55036;52.138;5.236;2023-05-29T08:23:42;16.70;51.10
68215;DHT22;55036;52.138;5.236;2023-05-29T08:26:09;16.70;50.70
68215;DHT22;55036;52.138;5.236;2023-05-29T08:28:36;16.60;52.20
68215;DHT22;55036;52.138;5.236;2023-05-29T08:31:04;16.80;50.70
68215;DHT22;55036;52.138;5.236;2023-05-29T08:33:31;16.80;50.30
68215;DHT22;55036;52.138;5.236;2023-05-29T08:35:59;16.80;51.40
68215;DHT22;55036;52.138;5.236;2023-05-29T08:38:27;17.10;51.60
68215;DHT22;55036;52.138;5.236;2023-05-29T08:40:56;17.30;49.80
68215;DHT22;55036;52.138;5.236;2023-05-29T08:43:26;17.30;48.70
68215;DHT22;55036;52.138;5.236;2023-05-29T08:46:00;17.30;49.30
68215;DHT22;55036;52.138;5.236;2023-05-29T08:48:29;17.30;49.60
68215;DHT22;55036;52.138;5.236;2023-05-29T08:50:58;17.40;49.40
68215;DHT22;55036;52.138;5.236;2023-05-29T08:53:25;17.50;50.60
68215;DHT22;55036;52.138;5.236;2023-05-29T08:55:53;17.60;48.80
68215;DHT22;55036;52.138;5.236;2023-05-29T08:58:20;17.60;49.30
68215;DHT22;55036;52.138;5.236;2023-05-29T09:00:50;17.50;48.90
68215;DHT22;55036;52.138;5.236;2023-05-29T09:03:19;17.60;48.60
68215;DHT22;55036;52.138;5.236;2023-05-29T09:05:48;17.60;47.40
68215;DHT22;55036;52.138;5.236;2023-05-29T09:08:15;17.60;48.30
68215;DHT22;55036;52.138;5.236;2023-05-29T09:10:43;17.70;48.10
68215;DHT22;55036;52.138;5.236;2023-05-29T09:13:11;17.40;47.50
68215;DHT22;55036;52.138;5.236;2023-05-29T09:15:38;17.30;47.70
68215;DHT22;55036;52.138;5.236;2023-05-29T09:18:10;17.50;48.40
68215;DHT22;55036;52.138;5.236;2023-05-29T09:20:37;17.80;48.10
68215;DHT22;55036;52.138;5.236;2023-05-29T09:23:08;18.00;48.30
68215;DHT22;55036;52.138;5.236;2023-05-29T09:25:40;18.10;48.00
68215;DHT22;55036;52.138;5.236;2023-05-29T09:28:08;18.20;45.90
68215;DHT22;55036;52.138;5.236;2023-05-29T09:30:40;18.10;47.60
68215;DHT22;55036;52.138;5.236;2023-05-29T09:33:09;18.30;47.90
68215;DHT22;55036;52.138;5.236;2023-05-29T09:35:38;18.40;46.70
68215;DHT22;55036;52.138;5.236;2023-05-29T09:38:05;18.00;46.80
68215;DHT22;55036;52.138;5.236;2023-05-29T09:40:33;18.20;46.70
68215;DHT22;55036;52.138;5.236;2023-05-29T09:43:05;18.30;47.20
68215;DHT22;55036;52.138;5.236;2023-05-29T09:45:37;18.60;47.80
68215;DHT22;55036;52.138;5.236;2023-05-29T09:48:12;18.80;45.60
68215;DHT22;55036;52.138;5.236;2023-05-29T09:50:39;18.70;46.60
68215;DHT22;55036;52.138;5.236;2023-05-29T09:53:23;18.60;46.30
68215;DHT22;55036;52.138;5.236;2023-05-29T09:55:52;18.70;46.50
68215;DHT22;55036;52.138;5.236;2023-05-29T09:58:20;18.60;45.80
68215;DHT22;55036;52.138;5.236;2023-05-29T10:00:47;18.30;46.70
68215;DHT22;55036;52.138;5.236;2023-05-29T10:03:15;18.40;47.50
68215;DHT22;55036;52.138;5.236;2023-05-29T10:05:47;18.60;47.50
68215;DHT22;55036;52.138;5.236;2023-05-29T10:08:15;18.80;47.50
68215;DHT22;55036;52.138;5.236;2023-05-29T10:10:45;18.70;45.00
68215;DHT22;55036;52.138;5.236;2023-05-29T10:13:14;18.40;45.80
68215;DHT22;55036;52.138;5.236;2023-05-29T10:15:44;18.30;46.20
68215;DHT22;55036;52.138;5.236;2023-05-29T10:18:39;18.30;46.90
68215;DHT22;55036;52.138;5.236;2023-05-29T10:21:11;18.40;47.60
68215;DHT22;55036;52.138;5.236;2023-05-29T10:23:43;18.50;46.10
68215;DHT22;55036;52.138;5.236;2023-05-29T10:26:24;18.50;45.70
68215;DHT22;55036;52.138;5.236;2023-05-29T10:29:14;18.50;46.70
68215;DHT22;55036;52.138;5.236;2023-05-29T10:31:58;18.80;44.20
68215;DHT22;55036;52.138;5.236;2023-05-29T10:37:42;18.40;44.40
68215;DHT22;55036;52.138;5.236;2023-05-29T10:40:11;18.50;46.30
68215;DHT22;55036;52.138;5.236;2023-05-29T10:45:10;19.10;45.90
68215;DHT22;55036;52.138;5.236;2023-05-29T10:47:40;19.30;44.60
68215;DHT22;55036;52.138;5.236;2023-05-29T10:50:07;19.30;44.10
68215;DHT22;55036;52.138;5.236;2023-05-29T10:52:34;19.10;43.80
68215;DHT22;55036;52.138;5.236;2023-05-29T10:55:02;19.20;44.30
68215;DHT22;55036;52.138;5.236;2023-05-29T10:57:33;19.20;41.40
68215;DHT22;55036;52.138;5.236;2023-05-29T11:00:10;19.20;41.90
68215;DHT22;55036;52.138;5.236;2023-05-29T11:02:41;19.20;43.00
68215;DHT22;55036;52.138;5.236;2023-05-29T11:05:23;19.30;43.40
68215;DHT22;55036;52.138;5.236;2023-05-29T11:07:53;19.50;41.30
68215;DHT22;55036;52.138;5.236;2023-05-29T11:13:33;19.50;41.30
68215;DHT22;55036;52.138;5.236;2023-05-29T11:18:57;18.80;41.30
68215;DHT22;55036;52.138;5.236;2023-05-29T11:24:25;18.90;42.40
68215;DHT22;55036;52.138;5.236;2023-05-29T11:26:56;19.00;43.00
68215;DHT22;55036;52.138;5.236;2023-05-29T11:29:27;19.00;42.90
68215;DHT22;55036;52.138;5.236;2023-05-29T11:32:15;19.10;42.60
68215;DHT22;55036;52.138;5.236;2023-05-29T11:34:43;19.20;41.20
68215;DHT22;55036;52.138;5.236;2023-05-29T11:37:11;19.00;41.80
68215;DHT22;55036;52.138;5.236;2023-05-29T11:39:38;19.20;42.10
68215;DHT22;55036;52.138;5.236;2023-05-29T11:42:06;19.50;42.50
68215;DHT22;55036;52.138;5.236;2023-05-29T11:44:34;19.70;40.20
68215;DHT22;55036;52.138;5.236;2023-05-29T11:47:05;19.60;41.70
68215;DHT22;55036;52.138;5.236;2023-05-29T11:49:35;19.80;41.10
68215;DHT22;55036;52.138;5.236;2023-05-29T11:52:10;19.70;40.60
68215;DHT22;55036;52.138;5.236;2023-05-29T11:54:42;19.80;41.20
68215;DHT22;55036;52.138;5.236;2023-05-29T11:57:20;19.80;40.60
68215;DHT22;55036;52.138;5.236;2023-05-29T11:59:49;19.80;39.90
68215;DHT22;55036;52.138;5.236;2023-05-29T12:02:18;19.50;40.40
68215;DHT22;55036;52.138;5.236;2023-05-29T12:05:02;19.60;41.40
68215;DHT22;55036;52.138;5.236;2023-05-29T12:07:30;19.80;41.70
68215;DHT22;55036;52.138;5.236;2023-05-29T12:09:56;19.70;41.40
68215;DHT22;55036;52.138;5.236;2023-05-29T12:12:26;19.60;41.10
68215;DHT22;55036;52.138;5.236;2023-05-29T12:14:55;19.50;41.90
68215;DHT22;55036;52.138;5.236;2023-05-29T12:17:22;19.60;42.40
68215;DHT22;55036;52.138;5.236;2023-05-29T12:19:49;19.70;42.40
68215;DHT22;55036;52.138;5.236;2023-05-29T12:22:16;19.80;41.50
68215;DHT22;55036;52.138;5.236;2023-05-29T12:24:42;19.70;41.60
68215;DHT22;55036;52.138;5.236;2023-05-29T12:27:09;19.80;41.50
68215;DHT22;55036;52.138;5.236;2023-05-29T12:29:36;19.90;41.00
68215;DHT22;55036;52.138;5.236;2023-05-29T12:32:03;19.90;41.00
68215;DHT22;55036;52.138;5.236;2023-05-29T12:34:36;19.70;40.40
68215;DHT22;55036;52.138;5.236;2023-05-29T12:37:09;19.70;41.20
68215;DHT22;55036;52.138;5.236;2023-05-29T12:39:40;19.70;41.10
68215;DHT22;55036;52.138;5.236;2023-05-29T12:42:07;19.70;41.80
68215;DHT22;55036;52.138;5.236;2023-05-29T12:44:34;19.80;41.40
68215;DHT22;55036;52.138;5.236;2023-05-29T12:47:03;20.00;41.80
68215;DHT22;55036;52.138;5.236;2023-05-29T12:49:30;20.10;41.30
68215;DHT22;55036;52.138;5.236;2023-05-29T12:52:05;20.10;41.30
68215;DHT22;55036;52.138;5.236;2023-05-29T12:54:34;20.30;41.80
68215;DHT22;55036;52.138;5.236;2023-05-29T12:57:00;20.30;41.10
68215;DHT22;55036;52.138;5.236;2023-05-29T12:59:28;20.20;40.20
68215;DHT22;55036;52.138;5.236;2023-05-29T13:01:55;20.10;40.40
68215;DHT22;55036;52.138;5.236;2023-05-29T13:04:22;20.10;39.10
68215;DHT22;55036;52.138;5.236;2023-05-29T13:06:49;20.20;38.80
68215;DHT22;55036;52.138;5.236;2023-05-29T13:09:16;20.30;39.50
68215;DHT22;55036;52.138;5.236;2023-05-29T13:11:43;20.40;39.80
68215;DHT22;55036;52.138;5.236;2023-05-29T13:14:09;20.40;38.80
68215;DHT22;55036;52.138;5.236;2023-05-29T13:16:36;20.30;40.20
68215;DHT22;55036;52.138;5.236;2023-05-29T13:19:03;20.20;41.10
68215;DHT22;55036;52.138;5.236;2023-05-29T13:21:30;20.10;42.70
68215;DHT22;55036;52.138;5.236;2023-05-29T13:23:57;20.10;42.60
68215;DHT22;55036;52.138;5.236;2023-05-29T13:26:23;20.20;42.80
68215;DHT22;55036;52.138;5.236;2023-05-29T13:28:50;20.40;43.10
68215;DHT22;55036;52.138;5.236;2023-05-29T13:31:18;20.50;42.60
68215;DHT22;55036;52.138;5.236;2023-05-29T13:33:47;20.60;42.40
68215;DHT22;55036;52.138;5.236;2023-05-29T13:36:14;20.50;42.20
68215;DHT22;55036;52.138;5.236;2023-05-29T13:38:41;20.70;42.70
68215;DHT22;55036;52.138;5.236;2023-05-29T13:41:07;20.80;43.00
68215;DHT22;55036;52.138;5.236;2023-05-29T13:43:34;20.80;42.70
68215;DHT22;55036;52.138;5.236;2023-05-29T13:46:11;20.90;42.80
68215;DHT22;55036;52.138;5.236;2023-05-29T13:48:38;21.00;41.80
68215;DHT22;55036;52.138;5.236;2023-05-29T13:51:04;20.90;41.10
68215;DHT22;55036;52.138;5.236;2023-05-29T13:53:32;20.60;41.70
68215;DHT22;55036;52.138;5.236;2023-05-29T13:55:58;20.60;42.20
68215;DHT22;55036;52.138;5.236;2023-05-29T13:58:25;20.60;43.60
68215;DHT22;55036;52.138;5.236;2023-05-29T14:00:52;20.50;42.50
68215;DHT22;55036;52.138;5.236;2023-05-29T14:03:19;20.50;42.90
68215;DHT22;55036;52.138;5.236;2023-05-29T14:05:48;20.50;42.30
68215;DHT22;55036;52.138;5.236;2023-05-29T14:08:15;20.50;42.90
68215;DHT22;55036;52.138;5.236;2023-05-29T14:10:42;20.70;43.00
68215;DHT22;55036;52.138;5.236;2023-05-29T14:13:08;20.70;42.50
68215;DHT22;55036;52.138;5.236;2023-05-29T14:15:36;20.80;42.10
68215;DHT22;55036;52.138;5.236;2023-05-29T14:18:19;20.70;42.30
68215;DHT22;55036;52.138;5.236;2023-05-29T14:20:45;20.90;42.70
68215;DHT22;55036;52.138;5.236;2023-05-29T14:23:18;21.00;42.00
68215;DHT22;55036;52.138;5.236;2023-05-29T14:25:45;21.00;41.40
68215;DHT22;55036;52.138;5.236;2023-05-29T14:28:11;20.80;41.60
68215;DHT22;55036;52.138;5.236;2023-05-29T14:30:38;20.80;41.60
68215;DHT22;55036;52.138;5.236;2023-05-29T14:33:05;20.90;41.90
68215;DHT22;55036;52.138;5.236;2023-05-29T14:35:32;20.80;42.00
68215;DHT22;55036;52.138;5.236;2023-05-29T14:37:59;20.80;42.30
68215;DHT22;55036;52.138;5.236;2023-05-29T14:40:26;20.70;42.40
68215;DHT22;55036;52.138;5.236;2023-05-29T14:42:52;20.70;41.90
68215;DHT22;55036;52.138;5.236;2023-05-29T14:45:19;20.70;42.20
68215;DHT22;55036;52.138;5.236;2023-05-29T14:47:46;20.70;41.30
68215;DHT22;55036;52.138;5.236;2023-05-29T14:50:12;20.60;41.90
68215;DHT22;55036;52.138;5.236;2023-05-29T14:52:41;20.50;42.20
68215;DHT22;55036;52.138;5.236;2023-05-29T14:55:08;20.40;42.60
68215;DHT22;55036;52.138;5.236;2023-05-29T14:57:35;20.30;43.40
68215;DHT22;55036;52.138;5.236;2023-05-29T15:00:03;20.40;43.30
68215;DHT22;55036;52.138;5.236;2023-05-29T15:02:32;20.40;43.50
68215;DHT22;55036;52.138;5.236;2023-05-29T15:04:59;20.50;43.30
68215;DHT22;55036;52.138;5.236;2023-05-29T15:07:26;20.40;43.10
68215;DHT22;55036;52.138;5.236;2023-05-29T15:09:53;20.30;43.90
68215;DHT22;55036;52.138;5.236;2023-05-29T15:12:19;20.10;44.20
68215;DHT22;55036;52.138;5.236;2023-05-29T15:14:46;20.00;43.80
68215;DHT22;55036;52.138;5.236;2023-05-29T15:17:13;20.10;44.00
68215;DHT22;55036;52.138;5.236;2023-05-29T15:19:39;20.00;43.60
68215;DHT22;55036;52.138;5.236;2023-05-29T15:22:06;20.00;43.60
68215;DHT22;55036;52.138;5.236;2023-05-29T15:24:33;20.10;43.50
68215;DHT22;55036;52.138;5.236;2023-05-29T15:27:00;20.00;43.90
68215;DHT22;55036;52.138;5.236;2023-05-29T15:29:33;20.00;44.10
68215;DHT22;55036;52.138;5.236;2023-05-29T15:32:03;20.00;44.50
68215;DHT22;55036;52.138;5.236;2023-05-29T15:34:30;20.00;44.30
68215;DHT22;55036;52.138;5.236;2023-05-29T15:36:57;20.00;44.30
68215;DHT22;55036;52.138;5.236;2023-05-29T15:39:23;20.00;44.70
68215;DHT22;55036;52.138;5.236;2023-05-29T15:41:52;20.00;44.60
68215;DHT22;55036;52.138;5.236;2023-05-29T15:44:19;19.90;44.20
68215;DHT22;55036;52.138;5.236;2023-05-29T15:46:45;19.80;44.30
68215;DHT22;55036;52.138;5.236;2023-05-29T15:49:12;19.80;44.10
68215;DHT22;55036;52.138;5.236;2023-05-29T15:51:39;19.80;44.50
68215;DHT22;55036;52.138;5.236;2023-05-29T15:54:07;19.70;44.40
68215;DHT22;55036;52.138;5.236;2023-05-29T15:56:34;19.60;44.50
68215;DHT22;55036;52.138;5.236;2023-05-29T15:59:01;19.60;44.70
68215;DHT22;55036;52.138;5.236;2023-05-29T16:01:29;19.60;44.70
68215;DHT22;55036;52.138;5.236;2023-05-29T16:03:55;19.60;44.90
68215;DHT22;55036;52.138;5.236;2023-05-29T16:06:22;19.70;44.80
68215;DHT22;55036;52.138;5.236;2023-05-29T16:08:49;19.60;44.90
68215;DHT22;55036;52.138;5.236;2023-05-29T16:11:16;19.60;45.20
68215;DHT22;55036;52.138;5.236;2023-05-29T16:13:42;19.60;45.20
68215;DHT22;55036;52.138;5.236;2023-05-29T16:16:09;19.70;45.40
68215;DHT22;55036;52.138;5.236;2023-05-29T16:18:36;19.80;45.60
68215;DHT22;55036;52.138;5.236;2023-05-29T16:21:03;19.60;45.30
68215;DHT22;55036;52.138;5.236;2023-05-29T16:23:29;19.30;46.00
68215;DHT22;55036;52.138;5.236;2023-05-29T16:25:57;19.20;46.10
68215;DHT22;55036;52.138;5.236;2023-05-29T16:28:24;19.10;46.20